Time;durP1;ratioP1;P1;durP2;ratioP2;P2;SDS_P1;SDS_P2;PMS_P1;PMS_P2;Temp;Humidity;BMP_temperature;BMP_pressure;BME280_temperature;BME280_humidity;BME280_pressure;Samples;Min_cycle;Max_cycle;Signal;HPM_P1;HPM_P2
2021/12/17 00:01:10;;;;;;;56.17;50.80;;;;;;;6.93;95.96;103855.28;4937047;29;20498;-86
2021/12/17 00:03:44;;;;;;;55.05;49.65;;;;;;;6.79;96.62;103847.09;4930983;29;20106;-87
2021/12/17 00:06:18;;;;;;;56.78;51.13;;;;;;;6.95;96.53;103862.22;4945673;29;20042;-86
2021/12/17 00:08:48;;;;;;;55.85;50.47;;;;;;;6.79;96.92;103855.66;4935775;29;20038;-88
2021/12/17 00:11:14;;;;;;;56.63;51.03;;;;;;;6.80;96.62;103854.81;4948738;29;20067;-87
2021/12/17 00:13:42;;;;;;;56.60;50.92;;;;;;;6.78;97.26;103855.59;4923780;29;20031;-89
2021/12/17 00:16:15;;;;;;;57.10;51.30;;;;;;;6.86;96.92;103851.63;4943533;29;20494;-87
2021/12/17 00:18:56;;;;;;;57.40;51.60;;;;;;;6.86;97.41;103843.97;4923408;29;20027;-88
2021/12/17 00:44:12;;;;;;;56.10;50.55;;;;;;;7.01;97.31;103859.84;4961584;29;20191;-88
2021/12/17 00:49:23;;;;;;;58.20;52.28;;;;;;;7.00;97.20;103845.34;4960455;29;20039;-88
2021/12/17 00:51:57;;;;;;;58.03;52.00;;;;;;;6.98;96.94;103848.63;4927723;29;20053;-88
2021/12/17 00:54:34;;;;;;;57.22;51.33;;;;;;;6.98;96.69;103854.63;4927621;29;20096;-88
2021/12/17 00:57:16;;;;;;;56.25;50.60;;;;;;;6.89;96.71;103850.06;4937179;29;20059;-89
2021/12/17 00:59:57;;;;;;;56.95;51.30;;;;;;;6.95;96.57;103854.53;4940337;29;20031;-88
2021/12/17 01:05:38;;;;;;;56.83;50.97;;;;;;;6.67;97.71;103838.16;4946109;29;20031;-88
2021/12/17 01:08:13;;;;;;;57.35;51.58;;;;;;;6.68;97.23;103801.53;4937815;29;20039;-88
2021/12/17 01:11:22;;;;;;;;;;;;;;;;;;;;;
2021/12/17 01:14:26;;;;;;;56.55;51.03;;;;;;;6.81;96.36;103804.50;4891153;29;20100;-89
2021/12/17 01:17:33;;;;;;;56.50;50.90;;;;;;;6.83;96.88;103798.66;4962523;28;20043;-88
2021/12/17 01:21:03;;;;;;;;;;;;;;;;;;;;;
2021/12/17 01:36:27;;;;;;;56.60;50.92;;;;;;;6.85;96.19;103809.81;4978488;28;20058;-89
2021/12/17 01:44:47;;;;;;;;;;;;;;;;;;;;;
2021/12/17 01:47:53;;;;;;;56.60;50.90;;;;;;;6.88;94.77;103826.97;4963668;28;20059;-89
2021/12/17 01:56:16;;;;;;;58.20;52.20;;;;;;;6.92;95.58;103823.72;4961784;28;20050;-90
2021/12/17 02:01:25;;;;;;;57.75;51.97;;;;;;;6.98;95.83;103829.03;4943154;29;20038;-88
2021/12/17 02:03:50;;;;;;;58.35;52.25;;;;;;;7.02;95.92;103825.78;4915700;29;20067;-88
2021/12/17 02:06:17;;;;;;;58.10;52.07;;;;;;;7.02;95.22;103812.13;4945927;29;20027;-81
2021/12/17 02:08:45;;;;;;;58.00;52.05;;;;;;;7.02;94.67;103810.41;4944894;29;20286;-81
2021/12/17 02:12:00;;;;;;;58.33;52.38;;;;;;;6.99;95.24;103810.31;4935199;29;20046;-86
2021/12/17 02:19:59;;;;;;;57.60;51.67;;;;;;;7.06;94.03;103801.16;4942145;29;20096;-88
2021/12/17 02:23:18;;;;;;;57.45;51.60;;;;;;;6.78;95.06;103799.31;4943876;29;20027;-88
2021/12/17 02:31:30;;;;;;;57.17;51.40;;;;;;;7.02;94.49;103796.75;4897771;29;20032;-87
2021/12/17 02:34:00;;;;;;;56.78;50.95;;;;;;;7.06;93.84;103804.59;4900262;29;20033;-87
2021/12/17 02:36:30;;;;;;;57.30;51.33;;;;;;;6.78;94.87;103773.72;4912698;29;20070;-87
2021/12/17 02:39:06;;;;;;;56.58;50.75;;;;;;;6.85;94.92;103765.44;4957381;29;20023;-87
2021/12/17 02:47:05;;;;;;;57.08;51.30;;;;;;;6.90;94.79;103794.63;4957009;28;20058;-87
2021/12/17 02:49:30;;;;;;;57.33;51.25;;;;;;;6.88;95.05;103786.03;4954999;29;20038;-86
2021/12/17 02:51:56;;;;;;;58.67;52.70;;;;;;;6.83;95.11;103782.44;4964929;29;20027;-88
2021/12/17 02:54:21;;;;;;;59.57;53.17;;;;;;;6.80;95.50;103778.06;4947463;29;20095;-87
2021/12/17 02:56:47;;;;;;;57.97;52.00;;;;;;;6.83;96.22;103800.34;4942682;29;20019;-87
2021/12/17 02:59:13;;;;;;;59.28;52.88;;;;;;;6.95;95.14;103813.59;4932863;29;20058;-87
2021/12/17 03:01:42;;;;;;;58.58;52.22;;;;;;;6.93;95.15;103810.09;4931002;29;20043;-88
2021/12/17 03:04:08;;;;;;;58.13;52.17;;;;;;;6.95;95.69;103818.72;4932366;29;20046;-87
2021/12/17 03:06:33;;;;;;;;;;;;;;;7.01;95.32;103824.03;4929463;29;20089;-87
2021/12/17 03:08:59;;;;;;;56.85;50.92;;;;;;;6.92;94.24;103823.72;4930774;29;19918;-86
2021/12/17 03:11:24;;;;;;;58.20;52.07;;;;;;;6.95;94.41;103808.47;4929644;29;20046;-88
2021/12/17 03:13:51;;;;;;;58.00;52.10;;;;;;;6.65;94.75;103798.84;4940440;29;20047;-87
2021/12/17 03:19:02;;;;;;;58.45;52.42;;;;;;;6.84;95.68;103814.88;4969101;28;20055;-88
2021/12/17 03:24:30;;;;;;;56.35;50.58;;;;;;;6.72;94.78;103810.19;4937527;29;20039;-87
2021/12/17 03:26:56;;;;;;;56.43;50.70;;;;;;;6.84;94.38;103823.44;4940897;29;20115;-87
2021/12/17 03:29:21;;;;;;;55.55;50.25;;;;;;;6.80;93.97;103813.88;4947473;29;20033;-87
2021/12/17 03:31:47;;;;;;;56.20;50.70;;;;;;;6.80;94.57;103802.78;4930608;29;20527;-89
2021/12/17 03:34:21;;;;;;;55.03;49.73;;;;;;;6.83;94.27;103813.13;4942846;29;20530;-88
2021/12/17 03:36:54;;;;;;;55.65;50.25;;;;;;;6.85;94.31;103812.34;4944081;29;20038;-89
2021/12/17 03:39:20;;;;;;;57.30;51.70;;;;;;;6.84;94.68;103809.75;4944429;29;20030;-88
2021/12/17 03:41:50;;;;;;;56.45;50.88;;;;;;;6.87;93.94;103809.84;4942942;29;20024;-88
2021/12/17 03:44:16;;;;;;;55.40;50.25;;;;;;;6.75;94.73;103792.38;4941979;29;20027;-88
2021/12/17 03:46:41;;;;;;;56.30;50.73;;;;;;;6.81;94.57;103781.50;4928177;29;20042;-88
2021/12/17 03:49:06;;;;;;;57.07;51.33;;;;;;;6.96;93.94;103773.50;4960827;28;20027;-87
2021/12/17 03:51:36;;;;;;;57.90;51.93;;;;;;;6.99;93.40;103763.38;4943864;29;20113;-87
2021/12/17 03:54:07;;;;;;;56.20;50.78;;;;;;;6.97;93.26;103773.56;4942521;29;20032;-89
2021/12/17 03:56:32;;;;;;;56.58;51.03;;;;;;;6.88;93.82;103786.88;4955743;29;20031;-88
2021/12/17 03:58:58;;;;;;;55.60;50.10;;;;;;;6.76;93.90;103783.91;4961156;28;20023;-87
2021/12/17 04:01:24;;;;;;;55.83;50.38;;;;;;;6.80;93.64;103764.41;4931653;29;20347;-87
2021/12/17 04:03:49;;;;;;;56.17;50.50;;;;;;;6.76;94.21;103754.88;4945409;29;20035;-88
2021/12/17 04:06:15;;;;;;;55.30;49.93;;;;;;;6.72;94.32;103771.81;4917571;29;20463;-88
2021/12/17 04:08:40;;;;;;;54.77;49.63;;;;;;;6.69;94.20;103767.44;4929020;29;20391;-88
2021/12/17 04:11:07;;;;;;;54.23;49.23;;;;;;;6.47;94.20;103767.47;4946716;29;20031;-88
2021/12/17 04:13:36;;;;;;;55.45;50.08;;;;;;;6.67;94.43;103787.00;4948946;29;20031;-89
2021/12/17 04:16:09;;;;;;;54.85;49.55;;;;;;;6.81;93.74;103799.41;4941897;29;20023;-88
2021/12/17 04:18:36;;;;;;;54.70;49.40;;;;;;;6.69;94.83;103795.59;4960067;28;20019;-88
2021/12/17 04:21:03;;;;;;;55.05;49.70;;;;;;;6.67;95.25;103792.09;4944743;29;20027;-88
2021/12/17 04:23:31;;;;;;;54.72;49.55;;;;;;;6.69;95.58;103799.84;4929857;29;20510;-87
2021/12/17 04:25:57;;;;;;;54.42;49.40;;;;;;;6.69;95.17;103789.59;4947017;29;20035;-88
2021/12/17 04:28:28;;;;;;;54.05;49.03;;;;;;;6.63;95.79;103790.22;4949334;29;20027;-89
2021/12/17 04:30:54;;;;;;;54.67;49.58;;;;;;;6.68;96.77;103790.41;4954052;29;20028;-88
2021/12/17 04:33:22;;;;;;;54.55;49.55;;;;;;;6.56;96.48;103772.94;4945148;29;20044;-89
2021/12/17 04:35:47;;;;;;;53.70;48.90;;;;;;;6.53;97.09;103768.56;4945219;29;20012;-86
2021/12/17 04:38:15;;;;;;;55.10;49.90;;;;;;;6.71;96.58;103785.41;4951388;29;21477;-86
2021/12/17 04:40:43;;;;;;;53.60;48.70;;;;;;;6.71;96.02;103796.53;4948273;29;20031;-87
2021/12/17 04:43:16;;;;;;;53.72;48.92;;;;;;;6.58;95.55;103786.66;4932607;29;20054;-88
2021/12/17 04:46:04;;;;;;;53.67;48.78;;;;;;;6.69;94.79;103795.59;4933171;29;20095;-86
2021/12/17 04:59:43;;;;;;;53.08;48.25;;;;;;;6.47;94.05;103763.22;4940269;29;20070;-87
2021/12/17 05:02:11;;;;;;;53.42;48.42;;;;;;;6.35;94.22;103747.44;4918978;29;20023;-86
2021/12/17 05:04:43;;;;;;;53.50;48.58;;;;;;;6.46;94.07;103781.97;4927285;29;20019;-89
2021/12/17 05:07:16;;;;;;;53.95;48.88;;;;;;;6.51;94.93;103775.31;4930905;29;20035;-87
2021/12/17 05:09:53;;;;;;;54.35;49.03;;;;;;;6.20;95.68;103767.31;4952007;29;20078;-87
2021/12/17 05:18:24;;;;;;;53.67;48.53;;;;;;;6.45;95.72;103810.03;4956696;29;20049;-87
2021/12/17 05:20:48;;;;;;;53.95;49.03;;;;;;;6.68;95.15;103824.56;4960073;28;20046;-88
2021/12/17 05:23:24;;;;;;;53.75;48.80;;;;;;;6.52;95.38;103825.66;4963572;28;20016;-85
2021/12/17 05:26:22;;;;;;;55.38;49.95;;;;;;;6.61;94.71;103825.13;4947281;28;20045;-86
2021/12/17 05:29:07;;;;;;;54.15;49.15;;;;;;;6.53;94.45;103823.97;4973998;28;20012;-85
2021/12/17 05:31:57;;;;;;;53.88;48.78;;;;;;;6.45;94.98;103820.25;4955429;28;20024;-86
2021/12/17 05:34:23;;;;;;;53.70;48.72;;;;;;;6.47;95.80;103823.75;4960423;28;20091;-88
2021/12/17 05:36:48;;;;;;;56.67;50.78;;;;;;;6.38;95.02;103825.94;4942418;28;20043;-88
2021/12/17 05:39:14;;;;;;;54.37;49.23;;;;;;;6.06;94.67;103765.13;4940389;29;20039;-87
2021/12/17 05:41:39;;;;;;;53.70;48.57;;;;;;;6.39;94.42;103799.56;4938679;29;20538;-87
2021/12/17 05:44:05;;;;;;;56.73;50.93;;;;;;;6.12;94.86;103800.25;4944021;29;20038;-87
2021/12/17 05:47:06;;;;;;;53.00;48.10;;;;;;;6.32;94.76;103812.13;4928836;29;20083;-87
2021/12/17 05:49:27;;;;;;;54.72;49.33;;;;;;;6.13;95.34;103771.31;4939755;29;20133;-86
2021/12/17 05:51:53;;;;;;;54.17;48.80;;;;;;;6.25;95.20;103781.13;4927873;29;20039;-88
2021/12/17 05:54:19;;;;;;;54.88;49.75;;;;;;;6.07;95.91;103756.63;4944480;29;20023;-87
2021/12/17 05:56:45;;;;;;;52.90;47.97;;;;;;;6.32;96.32;103804.44;4968477;28;20035;-87
2021/12/17 05:59:11;;;;;;;54.00;48.97;;;;;;;6.28;95.89;103796.59;4959604;29;20019;-86
2021/12/17 06:01:37;;;;;;;54.58;49.35;;;;;;;6.41;95.99;103798.81;4979798;28;20016;-86
2021/12/17 06:04:03;;;;;;;54.25;49.17;;;;;;;6.31;94.61;103761.78;4950839;28;20028;-87
2021/12/17 06:06:37;;;;;;;53.75;48.75;;;;;;;6.14;94.81;103773.06;4949752;29;20031;-88
2021/12/17 06:09:05;;;;;;;54.83;49.70;;;;;;;6.13;94.80;103781.56;4954838;29;20028;-89
2021/12/17 06:11:33;;;;;;;53.50;48.50;;;;;;;6.32;94.88;103798.47;4981308;28;20023;-89
2021/12/17 06:13:59;;;;;;;53.65;48.70;;;;;;;6.31;94.86;103789.91;4949254;29;20018;-89
2021/12/17 06:16:25;;;;;;;53.90;48.73;;;;;;;6.33;94.96;103756.72;4965716;28;20051;-89
2021/12/17 06:18:59;;;;;;;53.03;48.23;;;;;;;6.50;94.47;103798.28;4954966;28;20017;-88
2021/12/17 06:21:24;;;;;;;53.60;48.45;;;;;;;6.33;94.91;103800.19;4960505;29;20029;-88
2021/12/17 06:23:49;;;;;;;53.20;48.27;;;;;;;6.13;94.35;103759.41;4949017;29;20031;-88
2021/12/17 06:26:15;;;;;;;54.07;48.97;;;;;;;6.23;95.18;103793.84;4954189;29;20003;-86
2021/12/17 06:28:40;;;;;;;54.77;49.30;;;;;;;6.51;94.10;103815.38;4941894;29;20023;-88
2021/12/17 06:31:06;;;;;;;54.63;49.20;;;;;;;6.23;94.38;103768.28;4952845;29;20039;-85
2021/12/17 06:33:31;;;;;;;53.80;48.80;;;;;;;6.42;94.78;103804.78;4939223;28;20275;-88
2021/12/17 06:35:56;;;;;;;58.47;52.20;;;;;;;6.30;94.74;103794.97;4947417;28;20541;-85
2021/12/17 06:38:25;;;;;;;55.93;50.37;;;;;;;6.43;94.49;103822.75;4935585;29;20038;-88
2021/12/17 06:40:53;;;;;;;61.90;53.13;;;;;;;6.42;94.49;103812.47;4927079;29;20090;-88
2021/12/17 06:43:23;;;;;;;55.30;49.53;;;;;;;6.50;93.96;103800.84;4945905;29;20029;-87
2021/12/17 06:45:57;;;;;;;55.10;49.67;;;;;;;6.18;94.43;103800.47;4921297;29;20023;-88
2021/12/17 06:48:27;;;;;;;54.70;49.25;;;;;;;6.34;94.98;103823.25;4955496;29;20045;-87
2021/12/17 06:57:13;;;;;;;53.45;48.47;;;;;;;6.41;95.00;103826.06;4955932;29;20080;-86
2021/12/17 06:59:34;;;;;;;58.17;51.92;;;;;;;6.26;95.10;103823.78;4958627;28;20035;-88
2021/12/17 07:10:13;;;;;;;55.73;50.07;;;;;;;6.27;96.11;103820.44;4956396;29;20087;-87
2021/12/17 07:18:05;;;;;;;57.03;51.25;;;;;;;6.18;96.83;103826.91;4958196;29;20014;-87
2021/12/17 07:23:48;;;;;;;56.80;50.80;;;;;;;6.26;95.55;103826.34;4962555;29;20091;-87
2021/12/17 07:30:35;;;;;;;56.90;51.05;;;;;;;6.27;95.66;103825.53;4945062;29;20070;-86
2021/12/17 07:34:51;;;;;;;55.88;50.35;;;;;;;6.30;95.41;103831.63;4962568;29;20110;-87
2021/12/17 07:39:42;;;;;;;56.70;50.73;;;;;;;6.14;95.96;103830.16;4969068;29;20042;-86
2021/12/17 07:42:07;;;;;;;57.20;51.13;;;;;;;6.04;96.85;103832.28;4950533;29;20023;-87
2021/12/17 07:44:32;;;;;;;56.57;50.80;;;;;;;6.22;96.12;103834.69;4943782;29;20027;-87
2021/12/17 07:46:58;;;;;;;55.20;49.83;;;;;;;6.23;95.94;103832.19;4941105;29;20510;-87
2021/12/17 07:49:23;;;;;;;57.13;51.03;;;;;;;6.26;95.67;103822.09;4947017;29;20094;-89
2021/12/17 07:51:49;;;;;;;54.93;49.63;;;;;;;6.27;96.22;103828.97;4941376;29;20035;-92
2021/12/17 07:54:14;;;;;;;60.23;52.07;;;;;;;6.33;95.92;103841.09;4933569;29;20034;-91
2021/12/17 07:56:40;;;;;;;55.40;50.00;;;;;;;6.20;96.09;103821.84;4955647;28;20026;-90
2021/12/17 07:59:11;;;;;;;53.95;48.75;;;;;;;6.14;95.33;103798.59;4953697;29;20050;-92
2021/12/17 08:01:37;;;;;;;55.50;50.05;;;;;;;6.05;95.17;103794.03;4954685;28;20072;-91
2021/12/17 08:04:03;;;;;;;54.15;49.15;;;;;;;6.03;95.62;103792.22;4953573;29;20023;-90
2021/12/17 08:06:29;;;;;;;58.20;51.97;;;;;;;6.15;96.00;103810.59;4935764;29;20034;-88
2021/12/17 08:09:08;;;;;;;;;;;;;;;;;;;;;
2021/12/17 08:11:39;;;;;;;54.40;49.30;;;;;;;6.33;95.58;103847.09;4965557;28;20043;-87
2021/12/17 08:14:10;;;;;;;55.58;50.10;;;;;;;6.28;96.28;103848.63;4942787;29;20054;-87
2021/12/17 08:17:08;;;;;;;56.25;50.55;;;;;;;6.19;95.79;103848.25;4962399;28;20038;-89
2021/12/17 08:25:10;;;;;;;57.20;51.30;;;;;;;6.34;95.87;103864.16;4965623;28;20091;-86
2021/12/17 08:30:22;;;;;;;64.30;55.47;;;;;;;6.33;96.99;103866.66;4956440;29;20027;-87
2021/12/17 08:32:47;;;;;;;58.78;51.40;;;;;;;6.05;96.96;103836.59;4963908;28;20051;-87
2021/12/17 08:35:13;;;;;;;57.25;51.28;;;;;;;6.09;97.23;103846.13;4950274;28;20039;-87
2021/12/17 08:37:39;;;;;;;56.10;50.35;;;;;;;6.16;96.33;103833.66;4959951;28;20031;-88
2021/12/17 08:40:06;;;;;;;56.53;50.87;;;;;;;6.27;96.27;103857.09;4942835;29;20044;-87
2021/12/17 08:42:31;;;;;;;56.33;50.35;;;;;;;6.32;96.24;103857.28;4941478;28;20319;-86
2021/12/17 08:44:59;;;;;;;58.33;51.92;;;;;;;6.22;96.14;103833.03;4952758;28;20027;-83
2021/12/17 08:47:36;;;;;;;56.83;51.00;;;;;;;6.41;95.54;103856.75;4928692;29;20074;-86
2021/12/17 08:50:06;;;;;;;56.17;50.33;;;;;;;6.40;94.98;103837.13;4950243;29;20118;-83
2021/12/17 08:52:31;;;;;;;54.95;49.55;;;;;;;6.61;94.68;103858.38;4931391;29;20031;-85
2021/12/17 08:54:56;;;;;;;55.30;49.90;;;;;;;6.45;93.71;103843.28;4939746;29;20023;-87
2021/12/17 08:57:22;;;;;;;56.57;50.93;;;;;;;6.50;93.71;103841.75;4944940;29;20030;-88
2021/12/17 08:59:47;;;;;;;56.93;51.23;;;;;;;6.57;94.05;103843.75;4959526;28;20094;-84
2021/12/17 09:02:13;;;;;;;57.30;51.27;;;;;;;6.40;94.51;103835.41;4914209;29;20027;-77
2021/12/17 09:04:39;;;;;;;85.73;56.10;;;;;;;6.55;94.33;103847.91;4941773;29;20316;-82
2021/12/17 09:07:10;;;;;;;63.17;52.28;;;;;;;6.63;93.62;103854.19;4975103;28;20031;-81
2021/12/17 09:10:18;;;;;;;54.72;49.38;;;;;;;6.21;94.48;103823.63;4956962;29;20154;-81
2021/12/17 09:27:25;;;;;;;56.78;51.03;;;;;;;6.34;95.51;103871.84;4954583;29;20269;-83
2021/12/17 09:30:38;;;;;;;55.53;49.78;;;;;;;6.31;95.53;103884.50;4917863;29;20425;-82
2021/12/17 09:33:42;;;;;;;60.13;53.20;;;;;;;6.32;94.27;103868.34;4927478;29;20131;-83
2021/12/17 09:36:52;;;;;;;57.80;51.78;;;;;;;6.11;92.96;103875.19;4913716;29;20578;-86
2021/12/17 09:40:07;;;;;;;57.88;52.22;;;;;;;6.18;92.51;103867.81;4922745;29;20179;-84
2021/12/17 09:46:17;;;;;;;58.50;52.70;;;;;;;6.22;92.88;103888.38;4935538;29;20043;-84
2021/12/17 09:49:12;;;;;;;;;;;;;;;6.20;92.66;103895.97;4908659;29;20051;-85
2021/12/17 09:52:23;;;;;;;57.58;51.97;;;;;;;6.18;92.71;103905.28;4943065;29;19982;-85
2021/12/17 09:55:38;;;;;;;65.38;55.72;;;;;;;5.91;93.20;103867.53;4859526;29;20041;-83
2021/12/17 10:05:47;;;;;;;58.53;52.78;;;;;;;5.91;93.05;103875.19;4943576;29;20091;-83
2021/12/17 10:09:03;;;;;;;61.90;55.05;;;;;;;6.06;92.93;103903.13;4953846;29;20051;-82
2021/12/17 10:18:46;;;;;;;67.97;57.35;;;;;;;6.27;92.62;103908.22;4900882;29;20161;-84
2021/12/17 10:22:00;;;;;;;;;;;;;;;;;;;;;
2021/12/17 10:25:07;;;;;;;60.53;54.22;;;;;;;6.33;92.42;103897.34;4945220;29;20091;-83
2021/12/17 10:45:35;;;;;;;62.42;56.00;;;;;;;6.57;92.26;103894.91;4908298;29;20113;-82
2021/12/17 10:52:19;;;;;;;60.35;54.38;;;;;;;6.41;91.42;103854.19;4943105;29;20095;-83
2021/12/17 10:58:29;;;;;;;61.13;54.42;;;;;;;6.75;90.72;103896.41;4942386;29;20035;-85
2021/12/17 11:01:37;;;;;;;65.45;56.92;;;;;;;6.56;90.35;103897.41;4925695;29;20036;-85
2021/12/17 11:04:51;;;;;;;61.10;54.50;;;;;;;6.46;90.85;103901.25;4920394;29;20040;-84
2021/12/17 11:11:33;;;;;;;;;;;;;;;;;;;;;
2021/12/17 11:28:41;;;;;;;;;;;;;;;;;;;;;
2021/12/17 11:49:05;;;;;;;61.13;54.50;;;;;;;6.64;91.06;103832.91;4913041;29;20067;-85
2021/12/17 11:51:57;;;;;;;58.83;52.72;;;;;;;6.57;91.02;103820.72;4940810;29;20035;-84
2021/12/17 11:58:15;;;;;;;58.03;52.17;;;;;;;6.89;90.94;103862.00;4885832;29;20117;-84
2021/12/17 12:01:09;;;;;;;62.47;54.85;;;;;;;6.92;91.03;103854.44;4884734;29;20040;-84
2021/12/17 12:04:28;;;;;;;;;;;;;;;;;;;;;
2021/12/17 12:07:29;;;;;;;56.60;51.08;;;;;;;6.78;92.32;103850.50;4947015;29;20092;-84
2021/12/17 12:14:18;;;;;;;56.80;51.25;;;;;;;6.90;92.63;103856.03;4932538;29;20436;-85
2021/12/17 12:21:05;;;;;;;;;;;;;;;;;;;;;
2021/12/17 12:24:09;;;;;;;;;;;;;;;;;;;;;
2021/12/17 12:27:15;;;;;;;56.05;50.50;;;;;;;6.65;94.84;103859.34;4941924;29;20119;-85
2021/12/17 12:30:26;;;;;;;58.53;52.35;;;;;;;6.53;94.79;103813.75;4941721;29;20039;-84
2021/12/17 12:36:58;;;;;;;57.60;51.28;;;;;;;6.82;94.92;103860.00;4889471;29;20051;-84
2021/12/17 12:39:56;;;;;;;56.03;50.50;;;;;;;6.98;94.99;103853.75;4898642;29;20088;-83
2021/12/17 12:46:15;;;;;;;57.42;51.70;;;;;;;6.50;95.13;103819.59;4944210;29;20059;-83
2021/12/17 12:55:52;;;;;;;;;;;;;;;;;;;;;
2021/12/17 13:02:27;;;;;;;;;;;;;;;;;;;;;
2021/12/17 13:09:17;;;;;;;55.73;50.50;;;;;;;6.98;95.70;103826.47;4906973;29;20471;-85
2021/12/17 13:12:25;;;;;;;;;;;;;;;;;;;;;
2021/12/17 13:35:00;;;;;;;58.13;52.20;;;;;;;7.16;96.57;103822.81;4846883;29;20037;-85
2021/12/17 13:41:19;;;;;;;60.65;54.15;;;;;;;7.11;96.86;103820.13;4827633;29;20038;-85
2021/12/17 13:44:33;;;;;;;58.83;52.80;;;;;;;7.03;96.91;103824.97;4827362;29;20067;-84
2021/12/17 13:47:54;;;;;;;61.50;52.15;;;;;;;7.20;97.34;103829.81;4829186;29;20030;-85
2021/12/17 13:50:59;;;;;;;58.65;52.47;;;;;;;7.22;97.68;103839.28;4828049;29;20053;-85
2021/12/17 13:54:34;;;;;;;59.72;53.33;;;;;;;6.91;97.17;103786.13;4852667;29;20037;-83
2021/12/17 13:57:16;;;;;;;60.80;54.45;;;;;;;7.15;97.78;103837.31;4816463;29;20162;-83
2021/12/17 14:04:08;;;;;;;57.20;51.42;;;;;;;7.07;97.96;103814.00;4847071;29;20482;-84
2021/12/17 14:16:19;;;;;;;56.53;51.08;;;;;;;6.84;99.22;103773.91;5023860;23;20058;-84
2021/12/17 14:22:34;;;;;;;61.78;53.88;;;;;;;6.95;100.00;103800.78;5049460;23;20046;-83
2021/12/17 14:25:24;;;;;;;56.70;51.22;;;;;;;7.22;99.44;103821.38;4958051;28;20050;-85
2021/12/17 14:27:50;;;;;;;56.78;51.42;;;;;;;7.27;100.00;103813.84;4977065;28;20039;-84
2021/12/17 14:30:16;;;;;;;57.25;51.45;;;;;;;7.07;100.00;103793.53;4957277;28;20030;-82
2021/12/17 14:32:46;;;;;;;59.03;52.88;;;;;;;7.02;99.73;103782.25;4950497;28;20098;-82
2021/12/17 14:35:13;;;;;;;57.33;51.80;;;;;;;7.24;99.59;103821.41;4949332;29;20054;-84
2021/12/17 14:37:45;;;;;;;;;;;;;;;7.23;99.80;103820.53;4950419;29;20399;-84
2021/12/17 14:40:47;;;;;;;57.75;51.80;;;;;;;7.14;100.00;103793.75;4932177;29;20016;-83
2021/12/17 14:43:30;;;;;;;56.13;50.75;;;;;;;7.27;100.00;103821.53;4951561;29;20034;-84
2021/12/17 14:46:17;;;;;;;56.55;50.85;;;;;;;7.07;100.00;103793.53;4949131;29;20059;-84
2021/12/17 14:49:03;;;;;;;56.67;51.15;;;;;;;7.16;100.00;103815.13;4951195;29;20115;-83
2021/12/17 15:05:13;;;;;;;57.28;51.78;;;;;;;7.15;100.00;103775.00;4931574;29;20041;-82
2021/12/17 15:07:39;;;;;;;56.85;51.55;;;;;;;7.25;100.00;103788.19;4948590;29;20031;-82
2021/12/17 15:10:09;;;;;;;57.30;51.70;;;;;;;7.33;100.00;103803.78;4948782;29;20042;-83
2021/12/17 15:12:38;;;;;;;57.67;52.10;;;;;;;7.20;100.00;103779.47;4950116;29;20023;-83
2021/12/17 15:15:21;;;;;;;59.78;53.42;;;;;;;7.21;100.00;103770.09;4949481;29;20031;-83
2021/12/17 15:17:49;;;;;;;58.63;52.72;;;;;;;7.34;100.00;103812.38;4936705;29;20054;-83
2021/12/17 15:20:20;;;;;;;58.22;52.50;;;;;;;7.08;100.00;103777.34;4949102;29;20406;-82
2021/12/17 15:22:46;;;;;;;63.97;55.38;;;;;;;7.39;100.00;103806.56;4953911;29;20043;-82
2021/12/17 15:25:12;;;;;;;59.60;53.30;;;;;;;7.44;100.00;103812.72;4935749;28;20288;-83
2021/12/17 15:27:38;;;;;;;59.67;53.65;;;;;;;7.36;100.00;103815.84;4932847;29;20027;-82
2021/12/17 15:30:07;;;;;;;58.88;53.10;;;;;;;7.24;100.00;103799.25;4935086;29;20471;-83
2021/12/17 15:32:33;;;;;;;57.72;52.22;;;;;;;7.16;100.00;103771.63;4933261;29;20031;-83
2021/12/17 15:35:01;;;;;;;60.00;53.72;;;;;;;7.06;100.00;103755.97;4949277;28;20059;-83
2021/12/17 15:37:26;;;;;;;57.75;52.08;;;;;;;7.42;100.00;103810.94;4967871;28;20027;-83
2021/12/17 15:39:52;;;;;;;59.00;53.10;;;;;;;7.23;100.00;103788.94;4952459;28;20027;-82
2021/12/17 15:42:18;;;;;;;59.53;53.27;;;;;;;7.21;100.00;103780.34;4968523;28;20265;-83
2021/12/17 15:44:43;;;;;;;57.83;52.33;;;;;;;7.34;100.00;103808.09;4968140;28;20035;-83
2021/12/17 15:47:08;;;;;;;58.33;52.43;;;;;;;7.25;100.00;103797.53;4947840;28;20307;-82
2021/12/17 15:49:38;;;;;;;57.00;51.40;;;;;;;7.32;99.53;103807.19;4959767;28;20038;-83
2021/12/17 15:52:07;;;;;;;56.63;51.22;;;;;;;7.30;99.27;103811.41;4962166;28;20025;-82
2021/12/17 15:54:34;;;;;;;57.20;51.58;;;;;;;7.22;99.50;103802.56;4978711;28;20023;-84
2021/12/17 15:56:59;;;;;;;57.47;51.83;;;;;;;7.32;99.48;103821.66;4978761;28;20019;-81
2021/12/17 15:59:25;;;;;;;57.60;52.07;;;;;;;7.20;99.97;103815.31;4958214;29;20027;-82
2021/12/17 16:01:50;;;;;;;57.55;51.80;;;;;;;7.24;99.04;103811.19;4951264;28;20023;-82
2021/12/17 16:04:18;;;;;;;57.57;52.00;;;;;;;7.14;100.00;103809.09;4971079;28;20039;-83
2021/12/17 16:06:44;;;;;;;57.90;52.20;;;;;;;7.22;100.00;103803.44;4973649;28;20026;-83
2021/12/17 16:16:47;;;;;;;61.33;54.70;;;;;;;7.22;99.43;103805.13;4950072;29;20409;-82
2021/12/17 16:23:02;;;;;;;57.65;51.88;;;;;;;7.12;98.90;103810.75;4931378;29;20163;-83
2021/12/17 16:25:27;;;;;;;57.87;52.07;;;;;;;7.00;98.77;103811.16;4929222;29;20052;-83
2021/12/17 16:27:53;;;;;;;56.20;50.70;;;;;;;7.03;98.46;103801.03;4947134;28;20086;-83
2021/12/17 16:30:18;;;;;;;56.00;50.57;;;;;;;6.86;97.76;103787.66;4949749;28;20031;-83
2021/12/17 16:32:43;;;;;;;55.00;49.80;;;;;;;6.77;97.88;103764.31;4962989;28;20099;-81
2021/12/17 16:35:09;;;;;;;56.40;50.87;;;;;;;6.99;97.65;103810.31;4965366;28;20014;-81
2021/12/17 16:37:37;;;;;;;53.97;49.13;;;;;;;6.64;97.44;103786.88;4965861;28;20025;-82
2021/12/17 16:40:04;;;;;;;54.42;49.47;;;;;;;6.88;97.63;103817.59;4970705;28;20003;-82
2021/12/17 16:42:29;;;;;;;54.83;49.83;;;;;;;6.85;97.65;103811.50;4954683;29;20592;-83
2021/12/17 16:47:29;;;;;;;54.40;49.40;;;;;;;6.80;97.53;103808.78;4950112;28;20110;-83
2021/12/17 16:49:55;;;;;;;55.03;49.92;;;;;;;6.80;97.08;103784.88;4942627;29;20028;-83
2021/12/17 16:52:20;;;;;;;55.35;49.92;;;;;;;6.86;97.29;103796.19;4951873;28;20041;-82
2021/12/17 16:54:45;;;;;;;54.80;49.80;;;;;;;6.67;97.31;103791.25;4954866;29;20035;-82
2021/12/17 16:57:11;;;;;;;56.43;50.93;;;;;;;6.75;97.93;103807.75;4965418;28;20023;-83
2021/12/17 16:59:36;;;;;;;54.63;49.53;;;;;;;6.54;98.96;103812.94;4942874;28;20031;-82
2021/12/17 17:02:02;;;;;;;55.87;50.47;;;;;;;6.60;99.47;103802.03;4955251;28;20022;-83
2021/12/17 17:04:27;;;;;;;57.33;51.63;;;;;;;6.66;99.40;103795.47;4960546;28;20019;-83
2021/12/17 17:06:53;;;;;;;56.47;50.77;;;;;;;6.51;99.72;103805.16;4960478;28;20038;-84
2021/12/17 17:09:18;;;;;;;56.53;51.13;;;;;;;6.63;99.52;103810.69;4951422;28;20037;-83
2021/12/17 17:11:44;;;;;;;56.33;50.97;;;;;;;6.72;99.68;103815.31;4951620;29;20035;-83
2021/12/17 17:14:11;;;;;;;57.08;51.60;;;;;;;6.64;99.44;103811.59;4960264;28;20034;-82
2021/12/17 17:16:36;;;;;;;;;;;;;;;6.75;99.28;103819.66;4940143;28;20030;-82
2021/12/17 17:19:03;;;;;;;56.83;51.30;;;;;;;6.64;99.54;103802.22;4931454;29;19911;-83
2021/12/17 17:21:29;;;;;;;;;;;;;;;6.68;99.03;103806.66;4942380;29;20097;-85
2021/12/17 17:23:55;;;;;;;58.80;52.95;;;;;;;6.61;99.21;103807.22;4930604;29;19934;-83
2021/12/17 17:26:21;;;;;;;59.63;53.63;;;;;;;6.66;99.27;103799.72;4947688;29;20073;-82
2021/12/17 17:28:46;;;;;;;58.43;52.27;;;;;;;6.66;99.55;103804.84;4937266;28;20050;-84
2021/12/17 17:31:13;;;;;;;59.20;53.25;;;;;;;6.67;99.10;103788.69;4961634;28;20109;-82
2021/12/17 17:33:46;;;;;;;59.95;53.75;;;;;;;6.65;99.00;103788.63;4949549;28;20049;-84
2021/12/17 17:36:11;;;;;;;61.13;54.75;;;;;;;6.51;99.76;103787.25;4947881;29;20033;-83
2021/12/17 17:38:37;;;;;;;59.47;53.40;;;;;;;6.56;99.42;103770.38;4948307;28;20397;-83
2021/12/17 17:41:02;;;;;;;59.83;53.77;;;;;;;6.60;99.82;103784.16;4955041;28;20061;-83